Time;durP1;ratioP1;P1;durP2;ratioP2;P2;SDS_P1;SDS_P2;PMS_P1;PMS_P2;Temp;Humidity;BMP_temperature;BMP_pressure;BME280_temperature;BME280_humidity;BME280_pressure;Samples;Min_cycle;Max_cycle;Signal;HPM_P1;HPM_P2
2022/07/06 00:01:24;;;;;;;4.95;1.40;;;15.90;99.90;;;;;;5053883;28;20430;-69
2022/07/06 00:03:49;;;;;;;4.07;0.75;;;16.80;99.90;;;;;;5052551;28;20041;-69
2022/07/06 00:06:16;;;;;;;4.45;1.35;;;16.00;99.90;;;;;;5052716;28;20132;-71
2022/07/06 00:08:43;;;;;;;3.35;0.70;;;15.80;99.90;;;;;;5052596;28;20040;-69
2022/07/06 00:11:09;;;;;;;2.05;0.88;;;16.00;99.90;;;;;;5052514;28;20094;-70
2022/07/06 00:13:34;;;;;;;5.90;1.17;;;15.90;99.90;;;;;;5036012;28;20471;-69
2022/07/06 00:16:00;;;;;;;3.92;0.77;;;15.90;99.90;;;;;;5052647;28;20047;-69
2022/07/06 00:18:26;;;;;;;6.28;1.17;;;15.90;99.90;;;;;;5099623;22;20044;-72
2022/07/06 00:20:51;;;;;;;6.55;1.23;;;15.80;99.90;;;;;;5093599;28;20215;-70
2022/07/06 00:23:17;;;;;;;6.13;1.13;;;16.00;99.90;;;;;;5092779;28;20047;-70
2022/07/06 00:25:42;;;;;;;6.35;1.00;;;15.80;99.90;;;;;;5092828;28;20039;-71
2022/07/06 00:28:08;;;;;;;2.92;0.85;;;16.10;99.90;;;;;;5093106;28;20040;-70
2022/07/06 00:30:34;;;;;;;3.92;0.93;;;15.90;99.90;;;;;;5093845;28;20028;-70
2022/07/06 00:32:59;;;;;;;3.30;0.90;;;15.90;99.90;;;;;;5092700;28;20040;-71
2022/07/06 00:35:25;;;;;;;2.85;0.93;;;15.60;99.90;;;;;;5092726;28;20401;-71
2022/07/06 00:37:51;;;;;;;3.13;1.15;;;15.80;99.90;;;;;;5093752;28;20089;-71
2022/07/06 00:40:18;;;;;;;4.50;0.82;;;17.00;99.90;;;;;;5092581;28;20405;-70
2022/07/06 00:42:45;;;;;;;4.40;1.15;;;15.80;99.90;;;;;;5093848;28;20455;-71
2022/07/06 00:45:12;;;;;;;2.65;0.85;;;15.90;99.90;;;;;;5092676;28;20035;-70
2022/07/06 00:47:39;;;;;;;1.40;0.80;;;17.70;99.90;;;;;;5092050;28;20036;-70
2022/07/06 00:50:15;;;;;;;4.93;1.30;;;15.70;99.90;;;;;;5075477;28;20070;-70
2022/07/06 00:52:42;;;;;;;3.65;1.02;;;15.80;99.90;;;;;;5092406;28;20123;-70
2022/07/06 00:55:09;;;;;;;3.80;1.20;;;16.60;99.90;;;;;;5092320;28;20047;-72
2022/07/06 00:57:35;;;;;;;4.35;1.52;;;17.00;99.90;;;;;;5092106;28;20040;-71
2022/07/06 01:00:04;;;;;;;3.78;1.02;;;15.60;99.90;;;;;;5093332;28;20078;-71
2022/07/06 01:02:34;;;;;;;2.67;0.85;;;15.60;99.90;;;;;;5092830;28;20040;-71
2022/07/06 01:05:00;;;;;;;2.55;0.70;;;15.80;99.90;;;;;;5092329;28;20162;-71
2022/07/06 01:07:25;;;;;;;3.28;0.93;;;15.80;99.90;;;;;;5093317;28;20106;-70
2022/07/06 01:09:51;;;;;;;4.68;0.90;;;15.70;99.90;;;;;;5091864;28;20089;-70
2022/07/06 01:12:17;;;;;;;4.00;0.77;;;16.80;99.90;;;;;;5091870;28;20036;-71
2022/07/06 01:14:44;;;;;;;3.97;0.90;;;15.50;99.90;;;;;;5093284;28;20040;-70
2022/07/06 01:17:10;;;;;;;3.42;0.80;;;15.60;99.90;;;;;;5091603;28;20055;-71
2022/07/06 01:19:36;;;;;;;3.35;0.85;;;15.70;99.90;;;;;;5091745;28;20401;-71
2022/07/06 01:22:02;;;;;;;3.45;0.68;;;15.80;99.90;;;;;;5091860;28;20111;-71
2022/07/06 01:24:27;;;;;;;3.47;0.85;;;15.70;99.90;;;;;;5091665;28;20043;-71
2022/07/06 01:26:53;;;;;;;4.60;0.88;;;15.50;99.90;;;;;;5092732;28;20150;-70
2022/07/06 01:29:19;;;;;;;3.13;1.05;;;15.60;99.90;;;;;;5092705;28;20040;-71
2022/07/06 01:31:49;;;;;;;1.98;0.80;;;15.50;99.90;;;;;;5074710;28;20519;-71
2022/07/06 01:34:19;;;;;;;3.45;0.90;;;15.60;99.90;;;;;;5091471;28;20036;-70
2022/07/06 01:36:45;;;;;;;5.90;1.10;;;15.40;99.90;;;;;;5091430;28;20040;-70
2022/07/06 01:39:10;;;;;;;8.13;1.27;;;15.60;99.90;;;;;;5074240;28;20071;-71
2022/07/06 01:41:36;;;;;;;3.33;0.60;;;15.60;99.90;;;;;;5091329;28;20101;-70
2022/07/06 01:44:03;;;;;;;2.08;0.65;;;15.70;99.90;;;;;;5092717;28;20036;-70
2022/07/06 01:46:29;;;;;;;3.60;0.90;;;15.70;99.90;;;;;;5092707;28;20127;-71
2022/07/06 01:48:55;;;;;;;5.25;1.02;;;15.40;99.90;;;;;;5091072;28;20185;-72
2022/07/06 01:51:20;;;;;;;4.03;1.30;;;15.60;99.90;;;;;;5092478;28;20089;-70
2022/07/06 01:53:46;;;;;;;7.88;1.80;;;15.70;99.90;;;;;;5091452;28;20042;-71
2022/07/06 01:56:12;;;;;;;4.18;1.50;;;16.80;99.90;;;;;;5091731;28;20040;-71
2022/07/06 01:58:38;;;;;;;3.60;1.20;;;15.40;99.90;;;;;;5074156;28;20046;-70
2022/07/06 02:01:12;;;;;;;7.13;1.65;;;15.40;99.90;;;;;;5090913;28;20047;-71
2022/07/06 02:03:39;;;;;;;3.13;1.77;;;15.50;99.90;;;;;;5074082;28;20040;-71
2022/07/06 02:06:05;;;;;;;4.93;1.80;;;15.60;99.90;;;;;;5074519;28;20036;-71
2022/07/06 02:08:32;;;;;;;3.83;1.45;;;15.40;99.90;;;;;;5091064;28;20039;-71
2022/07/06 02:10:58;;;;;;;3.90;1.00;;;15.30;99.90;;;;;;5074363;28;20032;-70
2022/07/06 02:13:24;;;;;;;5.35;1.00;;;15.60;99.90;;;;;;5090638;28;20051;-71
2022/07/06 02:15:49;;;;;;;5.22;1.05;;;15.40;99.90;;;;;;5091660;28;20071;-71
2022/07/06 02:18:15;;;;;;;4.70;1.20;;;15.40;99.90;;;;;;5090930;28;20028;-70
2022/07/06 02:20:40;;;;;;;5.57;0.85;;;15.50;99.90;;;;;;5073935;28;20032;-72
2022/07/06 02:23:06;;;;;;;5.40;0.98;;;15.20;99.90;;;;;;5090610;28;20040;-70
2022/07/06 02:25:31;;;;;;;4.10;1.00;;;15.40;99.90;;;;;;5090738;28;20031;-70
2022/07/06 02:27:57;;;;;;;1.65;0.82;;;15.40;99.90;;;;;;5090788;28;20044;-70
2022/07/06 02:30:22;;;;;;;4.07;1.00;;;15.20;99.90;;;;;;5090365;28;20521;-70
2022/07/06 02:32:48;;;;;;;4.38;1.20;;;16.70;99.90;;;;;;5090546;28;20039;-70
2022/07/06 02:35:14;;;;;;;5.60;1.35;;;15.40;99.90;;;;;;5090651;28;20113;-70
2022/07/06 02:37:39;;;;;;;6.00;1.80;;;15.70;99.90;;;;;;5090498;28;20394;-71
2022/07/06 02:40:06;;;;;;;3.15;1.35;;;15.20;99.90;;;;;;5091492;28;20071;-70
2022/07/06 02:42:31;;;;;;;3.95;1.92;;;15.40;99.90;;;;;;5090603;28;20044;-70
2022/07/06 02:44:57;;;;;;;6.10;1.65;;;15.40;99.90;;;;;;5090769;28;20393;-70
2022/07/06 02:47:22;;;;;;;4.57;1.70;;;15.40;99.90;;;;;;5090056;28;20052;-71
2022/07/06 02:49:48;;;;;;;5.55;1.70;;;15.30;99.90;;;;;;5073347;28;20040;-72
2022/07/06 02:52:13;;;;;;;6.10;2.15;;;17.40;99.90;;;;;;5090399;28;20040;-70
2022/07/06 02:54:39;;;;;;;2.95;1.40;;;15.20;99.90;;;;;;5091734;28;20044;-71
2022/07/06 02:57:05;;;;;;;4.18;1.50;;;15.30;99.90;;;;;;5091478;28;20035;-70
2022/07/06 02:59:30;;;;;;;6.78;1.30;;;15.30;99.90;;;;;;5090054;28;20036;-70
2022/07/06 03:01:56;;;;;;;1.80;0.60;;;15.40;99.90;;;;;;5091517;28;20044;-70
2022/07/06 03:04:21;;;;;;;3.30;0.68;;;15.20;99.90;;;;;;5090268;28;20044;-70
2022/07/06 03:06:47;;;;;;;3.55;0.88;;;16.80;99.90;;;;;;5090351;28;20436;-71
2022/07/06 03:09:13;;;;;;;6.28;1.02;;;15.20;99.90;;;;;;5091242;28;20067;-71
2022/07/06 03:11:39;;;;;;;4.03;0.73;;;15.10;99.90;;;;;;5090159;28;20042;-71
2022/07/06 03:14:05;;;;;;;1.88;0.70;;;15.20;99.90;;;;;;5073774;28;20032;-71
2022/07/06 03:16:30;;;;;;;2.22;0.85;;;15.10;99.90;;;;;;5090101;28;20089;-71
2022/07/06 03:18:56;;;;;;;4.25;0.80;;;14.90;99.90;;;;;;5089661;28;20040;-71
2022/07/06 03:21:23;;;;;;;5.15;0.80;;;15.00;99.90;;;;;;5073134;28;20040;-71
2022/07/06 03:23:48;;;;;;;6.50;0.77;;;14.90;99.90;;;;;;5090045;28;20047;-71
2022/07/06 03:26:14;;;;;;;8.57;1.00;;;14.80;99.90;;;;;;5091982;28;20040;-72
2022/07/06 03:28:39;;;;;;;2.20;0.77;;;14.90;99.90;;;;;;5093774;28;20064;-70
2022/07/06 03:31:05;;;;;;;5.15;0.90;;;14.80;99.90;;;;;;5076962;28;20079;-71
2022/07/06 03:33:31;;;;;;;6.10;0.80;;;14.80;99.90;;;;;;5076986;28;20127;-70
2022/07/06 03:35:57;;;;;;;3.55;0.60;;;14.80;99.90;;;;;;5095132;28;20036;-70
2022/07/06 03:38:22;;;;;;;0.82;0.52;;;14.70;99.90;;;;;;5076999;28;20078;-70
2022/07/06 03:40:48;;;;;;;2.95;0.63;;;14.60;99.90;;;;;;5094693;28;20040;-70
2022/07/06 03:43:13;;;;;;;4.05;0.98;;;14.50;99.90;;;;;;5093579;28;20043;-70
2022/07/06 03:45:39;;;;;;;3.05;0.85;;;14.70;99.90;;;;;;5093703;28;20486;-71
2022/07/06 03:48:05;;;;;;;2.20;0.90;;;15.80;99.90;;;;;;5093616;28;20024;-70
2022/07/06 03:50:30;;;;;;;5.05;0.77;;;14.60;99.90;;;;;;5094673;28;20119;-71
2022/07/06 03:52:56;;;;;;;6.65;1.13;;;14.70;99.90;;;;;;5093568;28;20044;-70
2022/07/06 03:55:21;;;;;;;5.18;1.00;;;14.70;99.90;;;;;;5093348;28;20127;-71
2022/07/06 03:57:47;;;;;;;4.18;1.13;;;;;;;;;;5076455;28;20509;-70
2022/07/06 04:00:14;;;;;;;4.68;0.98;;;14.60;99.90;;;;;;5092949;28;20043;-70
2022/07/06 04:02:39;;;;;;;3.25;1.27;;;14.60;99.90;;;;;;5094662;28;20071;-71
2022/07/06 04:05:05;;;;;;;3.17;0.90;;;14.50;99.90;;;;;;5093267;28;20120;-70
2022/07/06 04:07:31;;;;;;;3.10;0.65;;;;;;;;;;5093146;28;20040;-71
2022/07/06 04:09:57;;;;;;;4.82;1.00;;;14.60;99.90;;;;;;5076155;28;20040;-70
2022/07/06 04:12:22;;;;;;;7.78;1.10;;;14.60;99.90;;;;;;5094676;28;20114;-70
2022/07/06 04:14:48;;;;;;;7.68;1.00;;;14.60;99.90;;;;;;5094596;28;20036;-70
2022/07/06 04:19:58;;;;;;;3.80;0.75;;;14.50;99.90;;;;;;5093085;28;20401;-70
2022/07/06 04:22:23;;;;;;;6.25;0.70;;;14.50;99.90;;;;;;5094089;28;20040;-71
2022/07/06 04:24:49;;;;;;;3.15;0.68;;;14.50;99.90;;;;;;5092871;28;20456;-70
2022/07/06 04:27:14;;;;;;;2.80;0.70;;;14.50;99.90;;;;;;5094204;28;20452;-70
2022/07/06 04:29:40;;;;;;;2.90;0.90;;;14.70;99.90;;;;;;5092487;28;20410;-70
2022/07/06 04:32:06;;;;;;;3.15;0.77;;;14.50;99.90;;;;;;5092728;28;20123;-70
2022/07/06 04:34:31;;;;;;;4.53;0.85;;;14.60;99.90;;;;;;5092843;28;20097;-70
2022/07/06 04:36:57;;;;;;;3.50;0.80;;;14.70;99.90;;;;;;5092854;28;20402;-70
2022/07/06 04:39:23;;;;;;;4.57;0.68;;;14.80;99.90;;;;;;5092185;28;20047;-71
2022/07/06 04:41:48;;;;;;;4.15;1.42;;;14.80;99.90;;;;;;5075559;28;20071;-71
2022/07/06 04:44:14;;;;;;;4.47;0.73;;;14.80;99.90;;;;;;5075646;28;20036;-70
2022/07/06 04:46:40;;;;;;;5.75;1.10;;;14.70;99.90;;;;;;5093804;28;20040;-70
2022/07/06 04:49:06;;;;;;;3.58;1.33;;;14.70;99.90;;;;;;5091735;28;20040;-71
2022/07/06 04:51:32;;;;;;;4.18;0.63;;;14.70;99.90;;;;;;5093820;28;20036;-70
2022/07/06 04:53:58;;;;;;;4.15;0.90;;;14.60;99.90;;;;;;5092541;28;20040;-70
2022/07/06 04:56:23;;;;;;;5.65;0.93;;;14.70;99.90;;;;;;5092219;28;20100;-71
2022/07/06 04:58:49;;;;;;;3.35;0.90;;;14.80;99.90;;;;;;5092075;28;20123;-70
2022/07/06 05:01:14;;;;;;;10.25;1.02;;;16.70;99.90;;;;;;5093696;28;20433;-70
2022/07/06 05:03:40;;;;;;;7.35;1.48;;;14.70;99.90;;;;;;5093250;28;20036;-70
2022/07/06 05:06:07;;;;;;;2.65;0.80;;;14.80;99.90;;;;;;5092316;28;20071;-70
2022/07/06 05:08:33;;;;;;;3.33;0.75;;;14.90;99.90;;;;;;5075069;28;20046;-71
2022/07/06 05:10:59;;;;;;;4.45;0.68;;;14.90;99.90;;;;;;5093104;28;20401;-70
2022/07/06 05:13:25;;;;;;;5.38;1.23;;;14.90;99.90;;;;;;5093358;28;20164;-70
2022/07/06 05:15:50;;;;;;;9.05;2.38;;;15.80;99.90;;;;;;5092060;28;20032;-71
2022/07/06 05:18:16;;;;;;;6.65;2.63;;;;;;;;;;5091689;28;20047;-71
2022/07/06 05:20:42;;;;;;;4.95;2.83;;;14.80;99.90;;;;;;5091616;28;20044;-70
2022/07/06 05:23:08;;;;;;;4.80;1.17;;;14.70;99.90;;;;;;5074893;28;20508;-70
2022/07/06 05:25:33;;;;;;;4.43;1.58;;;14.80;99.90;;;;;;5091691;28;20036;-71
2022/07/06 05:27:59;;;;;;;3.78;2.17;;;14.90;99.90;;;;;;5091584;28;20118;-70
2022/07/06 05:30:25;;;;;;;4.35;2.55;;;14.90;99.90;;;;;;5092711;28;20450;-70
2022/07/06 05:32:51;;;;;;;6.90;1.10;;;15.00;99.90;;;;;;5092834;28;20032;-71
2022/07/06 05:35:17;;;;;;;3.55;1.25;;;15.30;99.90;;;;;;5092717;28;20084;-70
2022/07/06 05:37:43;;;;;;;4.13;0.80;;;15.30;99.90;;;;;;5092932;28;20178;-71
2022/07/06 05:40:09;;;;;;;4.28;0.95;;;15.40;99.90;;;;;;5091355;28;20039;-70
2022/07/06 05:42:35;;;;;;;9.13;0.68;;;15.40;99.90;;;;;;5074317;28;20051;-70
2022/07/06 05:45:00;;;;;;;13.48;1.55;;;15.30;99.90;;;;;;5092727;28;20032;-70
2022/07/06 05:50:13;;;;;;;4.82;1.33;;;15.40;99.90;;;;;;5091168;28;20408;-70
2022/07/06 05:52:40;;;;;;;2.30;0.85;;;15.70;99.90;;;;;;5091634;28;20043;-70
2022/07/06 05:55:06;;;;;;;5.72;1.00;;;15.30;99.90;;;;;;5092729;28;20040;-70
2022/07/06 05:57:32;;;;;;;3.55;0.75;;;15.30;99.90;;;;;;5074473;28;20040;-70
2022/07/06 05:59:57;;;;;;;2.83;0.88;;;15.40;99.90;;;;;;5090656;28;20047;-70
2022/07/06 06:02:23;;;;;;;7.10;1.10;;;15.30;99.90;;;;;;5092318;28;20040;-70
2022/07/06 06:04:48;;;;;;;7.25;1.10;;;15.40;99.90;;;;;;5091091;28;20036;-70
2022/07/06 06:07:14;;;;;;;3.75;0.73;;;15.40;99.90;;;;;;5090838;28;20115;-71
2022/07/06 06:09:39;;;;;;;3.47;0.55;;;15.50;99.90;;;;;;5091865;28;20036;-70
2022/07/06 06:12:05;;;;;;;6.47;1.10;;;15.40;99.90;;;;;;5090734;28;20040;-71
2022/07/06 06:14:31;;;;;;;4.85;0.85;;;15.30;99.90;;;;;;5091127;28;20044;-72
2022/07/06 06:16:57;;;;;;;6.05;0.80;;;15.50;99.90;;;;;;5092113;28;20097;-70
2022/07/06 06:19:23;;;;;;;8.68;1.20;;;15.60;99.90;;;;;;5129217;22;20082;-70
2022/07/06 06:21:49;;;;;;;3.60;0.65;;;15.50;99.90;;;;;;5110916;28;20129;-69
2022/07/06 06:24:14;;;;;;;3.75;0.70;;;15.50;99.90;;;;;;5111936;28;20035;-69
2022/07/06 06:26:40;;;;;;;3.10;0.70;;;15.70;99.90;;;;;;5110910;28;20057;-70
2022/07/06 06:29:05;;;;;;;6.25;0.93;;;15.60;99.90;;;;;;5110380;28;20027;-69
2022/07/06 06:31:31;;;;;;;4.95;1.00;;;15.70;99.90;;;;;;5112184;28;20511;-70
2022/07/06 06:33:57;;;;;;;2.58;0.70;;;15.80;99.90;;;;;;5112084;28;20052;-69
2022/07/06 06:36:22;;;;;;;5.13;1.67;;;15.80;99.90;;;;;;5110546;28;20035;-70
2022/07/06 06:38:48;;;;;;;5.22;0.73;;;15.80;99.90;;;;;;5093746;28;20039;-70
2022/07/06 06:41:13;;;;;;;9.20;1.27;;;15.70;99.90;;;;;;5110374;28;20493;-70
2022/07/06 06:43:39;;;;;;;2.88;0.90;;;17.10;99.90;;;;;;5110581;28;20051;-69
2022/07/06 06:46:05;;;;;;;3.47;0.68;;;15.90;99.90;;;;;;5110710;28;20032;-70
2022/07/06 06:48:31;;;;;;;2.30;0.52;;;16.90;99.90;;;;;;5093637;28;20452;-69
2022/07/06 06:50:57;;;;;;;4.35;0.90;;;15.60;99.90;;;;;;5110561;28;20032;-69
2022/07/06 06:53:22;;;;;;;7.78;1.02;;;15.90;99.90;;;;;;5111804;28;20040;-69
2022/07/06 06:55:48;;;;;;;5.60;0.95;;;16.30;99.90;;;;;;5112035;28;20043;-69
2022/07/06 06:58:14;;;;;;;8.88;1.17;;;16.50;99.90;;;;;;5110579;28;20086;-70
2022/07/06 07:00:39;;;;;;;2.88;0.80;;;16.40;99.90;;;;;;5111382;28;20031;-69
2022/07/06 07:03:05;;;;;;;2.85;0.88;;;16.70;99.90;;;;;;5115933;28;20409;-69
2022/07/06 07:05:30;;;;;;;4.47;0.60;;;16.70;99.90;;;;;;5097609;28;20040;-70
2022/07/06 07:07:58;;;;;;;4.00;0.98;;;16.70;99.90;;;;;;5115675;28;20034;-71
2022/07/06 07:10:25;;;;;;;4.70;1.90;;;16.70;99.90;;;;;;5115878;28;20040;-69
2022/07/06 07:12:51;;;;;;;7.47;1.88;;;16.70;99.90;;;;;;5116131;27;20420;-69
2022/07/06 07:15:17;;;;;;;6.47;1.85;;;16.80;99.90;;;;;;5114520;28;20047;-70
2022/07/06 07:17:42;;;;;;;5.78;1.52;;;17.00;99.90;;;;;;5114298;28;20043;-69
2022/07/06 07:20:08;;;;;;;3.67;1.40;;;17.00;99.90;;;;;;5097145;28;20447;-70
2022/07/06 07:22:34;;;;;;;3.10;1.98;;;17.40;99.90;;;;;;5115816;28;20047;-70
2022/07/06 07:25:00;;;;;;;3.60;0.70;;;17.60;99.90;;;;;;5097456;28;20028;-70
2022/07/06 07:27:26;;;;;;;5.70;1.15;;;17.80;99.90;;;;;;5114177;28;20032;-70
2022/07/06 07:29:53;;;;;;;3.97;1.00;;;17.60;99.90;;;;;;5113806;28;20417;-70
2022/07/06 07:32:19;;;;;;;3.85;1.00;;;17.80;99.90;;;;;;5115121;28;20044;-70
2022/07/06 07:34:45;;;;;;;4.15;1.25;;;17.80;99.90;;;;;;5114191;28;20092;-70
2022/07/06 07:37:11;;;;;;;4.80;1.05;;;18.00;99.90;;;;;;5113958;28;20535;-70
2022/07/06 07:39:37;;;;;;;6.00;0.68;;;19.40;99.90;;;;;;5113736;28;20043;-70
2022/07/06 07:42:02;;;;;;;3.60;0.60;;;18.10;99.90;;;;;;5113913;28;20049;-70
2022/07/06 07:44:28;;;;;;;3.90;0.57;;;18.10;99.90;;;;;;5113847;28;20036;-70
2022/07/06 07:46:54;;;;;;;0.98;0.40;;;19.30;99.90;;;;;;5113828;28;20080;-70
2022/07/06 07:49:20;;;;;;;2.92;0.50;;;17.90;99.90;;;;;;5113437;28;20480;-70
2022/07/06 07:51:49;;;;;;;2.80;0.90;;;18.30;99.90;;;;;;5096707;28;20054;-70
2022/07/06 07:54:15;;;;;;;2.80;0.90;;;17.70;99.90;;;;;;5096569;28;20035;-70
2022/07/06 07:56:41;;;;;;;4.78;0.85;;;17.70;99.90;;;;;;5113861;28;20105;-70
2022/07/06 07:59:07;;;;;;;2.80;0.57;;;18.90;99.90;;;;;;5114791;28;20409;-70
2022/07/06 08:01:33;;;;;;;4.40;0.77;;;19.20;99.90;;;;;;5116386;28;20198;-68
2022/07/06 08:03:59;;;;;;;1.50;0.90;;;18.40;99.90;;;;;;5113673;28;20047;-70
2022/07/06 08:06:25;;;;;;;3.38;0.50;;;18.60;99.90;;;;;;5113365;28;20093;-70
2022/07/06 08:08:51;;;;;;;4.38;0.50;;;18.50;99.90;;;;;;5113283;28;20065;-68
2022/07/06 08:11:16;;;;;;;4.15;0.60;;;18.10;99.90;;;;;;5113213;28;20035;-70
2022/07/06 08:13:42;;;;;;;2.30;0.95;;;17.80;99.90;;;;;;5113400;28;20383;-70
2022/07/06 08:16:09;;;;;;;3.38;0.85;;;17.70;99.90;;;;;;5113246;28;20042;-70
2022/07/06 08:18:35;;;;;;;3.30;0.60;;;17.70;99.90;;;;;;5114254;28;20501;-70
2022/07/06 08:21:01;;;;;;;3.90;0.82;;;18.10;99.90;;;;;;5112798;28;20050;-70
2022/07/06 08:23:27;;;;;;;2.80;0.68;;;18.40;99.90;;;;;;5113070;28;20413;-70
2022/07/06 08:25:52;;;;;;;2.97;0.80;;;18.50;99.90;;;;;;5113286;28;20485;-71
2022/07/06 08:28:18;;;;;;;3.35;0.90;;;18.60;99.90;;;;;;5114288;28;20038;-70
2022/07/06 08:30:44;;;;;;;4.30;0.55;;;18.60;99.90;;;;;;5095997;28;20036;-70
2022/07/06 08:33:10;;;;;;;4.10;0.88;;;18.60;99.90;;;;;;5114196;28;20127;-70
2022/07/06 08:35:35;;;;;;;4.30;0.60;;;18.90;99.90;;;;;;5112950;28;20503;-71
2022/07/06 08:38:01;;;;;;;3.10;0.60;;;19.80;99.90;;;;;;5112887;28;20043;-70
2022/07/06 08:40:33;;;;;;;3.80;0.60;;;19.30;99.90;;;;;;5113894;28;20045;-69
2022/07/06 08:42:59;;;;;;;2.92;0.55;;;20.40;99.90;;;;;;5113190;28;20089;-70
2022/07/06 08:45:26;;;;;;;4.28;1.48;;;19.10;99.90;;;;;;5114401;28;20024;-70
2022/07/06 08:47:54;;;;;;;1.85;0.65;;;20.30;99.90;;;;;;5094975;28;20556;-70
2022/07/06 08:50:20;;;;;;;3.00;0.65;;;20.30;99.90;;;;;;5112524;28;20405;-70
2022/07/06 08:52:48;;;;;;;4.85;0.60;;;19.70;99.90;;;;;;5113796;28;20036;-70
2022/07/06 08:55:14;;;;;;;5.35;0.65;;;19.00;99.90;;;;;;5112467;28;20332;-70
2022/07/06 08:57:40;;;;;;;1.90;0.50;;;18.90;99.90;;;;;;5112298;28;20046;-70
2022/07/06 09:00:09;;;;;;;3.47;0.40;;;19.20;99.80;;;;;;5113710;28;20044;-70
2022/07/06 09:02:36;;;;;;;2.55;0.68;;;19.60;99.80;;;;;;5112286;28;20507;-70
2022/07/06 09:05:03;;;;;;;1.23;0.45;;;20.30;99.90;;;;;;5112504;28;20039;-70
2022/07/06 09:07:29;;;;;;;4.55;0.90;;;19.10;99.90;;;;;;5112122;28;20035;-70
2022/07/06 09:09:58;;;;;;;1.90;0.40;;;18.80;99.90;;;;;;5112119;28;20122;-70
2022/07/06 09:12:26;;;;;;;3.00;0.60;;;19.30;99.90;;;;;;5112423;28;20177;-70
2022/07/06 09:14:56;;;;;;;2.17;0.80;;;19.40;99.40;;;;;;5113636;28;20035;-70
2022/07/06 09:17:25;;;;;;;3.03;0.88;;;19.20;99.70;;;;;;5111854;28;20047;-69
2022/07/06 09:19:51;;;;;;;4.97;0.80;;;19.10;99.90;;;;;;5111415;28;20055;-70
2022/07/06 09:22:31;;;;;;;5.50;0.70;;;20.30;99.90;;;;;;5113123;28;20043;-70
2022/07/06 09:25:14;;;;;;;4.15;0.60;;;18.80;99.90;;;;;;5111382;28;20047;-70
2022/07/06 09:27:41;;;;;;;2.50;0.85;;;18.40;99.90;;;;;;5113312;28;20035;-70
2022/07/06 09:30:08;;;;;;;1.50;0.50;;;18.60;99.90;;;;;;5094468;28;20516;-70
2022/07/06 09:32:42;;;;;;;2.42;0.60;;;18.50;99.90;;;;;;5113310;28;20050;-70
2022/07/06 09:35:18;;;;;;;2.88;0.50;;;18.70;99.90;;;;;;5094158;28;20053;-70
2022/07/06 09:37:47;;;;;;;5.68;1.15;;;18.70;99.90;;;;;;5111540;28;20097;-70
2022/07/06 09:40:17;;;;;;;5.53;0.70;;;18.10;99.90;;;;;;5109745;28;20050;-70
2022/07/06 09:42:43;;;;;;;3.42;0.50;;;18.30;99.90;;;;;;5091014;28;20036;-70
2022/07/06 09:45:09;;;;;;;2.55;0.73;;;18.10;99.90;;;;;;5105986;28;20058;-70
2022/07/06 09:47:36;;;;;;;2.40;0.80;;;18.20;99.90;;;;;;5101368;28;20504;-70
2022/07/06 09:50:01;;;;;;;2.38;0.60;;;18.70;99.90;;;;;;5110153;28;20517;-70
2022/07/06 09:52:27;;;;;;;2.78;0.70;;;19.50;99.90;;;;;;5092247;28;20049;-71
2022/07/06 09:54:52;;;;;;;1.55;0.50;;;19.30;99.90;;;;;;5110668;28;20035;-70
2022/07/06 09:57:21;;;;;;;1.98;0.55;;;19.30;99.90;;;;;;5110751;28;20043;-70
2022/07/06 09:59:51;;;;;;;3.58;0.65;;;19.40;99.90;;;;;;5109150;28;20047;-71
2022/07/06 10:02:16;;;;;;;2.63;0.52;;;21.50;99.90;;;;;;5091475;28;20550;-70
2022/07/06 10:04:45;;;;;;;4.85;0.63;;;19.90;99.70;;;;;;5096847;28;20032;-70
2022/07/06 10:07:11;;;;;;;6.47;0.77;;;19.50;99.60;;;;;;5095395;28;20134;-70
2022/07/06 10:09:37;;;;;;;2.35;0.82;;;19.50;99.80;;;;;;5107550;28;20103;-70
2022/07/06 10:12:09;;;;;;;1.98;0.60;;;19.80;99.40;;;;;;5093256;28;20569;-70
2022/07/06 10:14:34;;;;;;;2.10;0.57;;;20.10;99.60;;;;;;5090715;28;20055;-71
2022/07/06 10:17:02;;;;;;;5.50;1.02;;;21.50;99.70;;;;;;5089407;28;20123;-69
2022/07/06 10:19:29;;;;;;;6.18;0.57;;;20.10;98.80;;;;;;5093605;28;20031;-70
2022/07/06 10:21:58;;;;;;;1.67;0.50;;;19.80;99.00;;;;;;5105325;28;20051;-70
2022/07/06 10:24:24;;;;;;;2.70;0.50;;;19.90;99.50;;;;;;5091195;28;20032;-70
2022/07/06 10:26:50;;;;;;;4.88;0.93;;;19.70;98.60;;;;;;5092917;28;20118;-70
2022/07/06 10:29:16;;;;;;;1.48;0.45;;;19.90;98.90;;;;;;5097666;28;20122;-70
2022/07/06 10:31:47;;;;;;;3.20;0.70;;;20.00;98.70;;;;;;5110387;28;20035;-71
2022/07/06 10:34:16;;;;;;;1.45;0.50;;;20.40;98.70;;;;;;5111933;28;20104;-70
2022/07/06 10:36:44;;;;;;;2.90;0.65;;;21.00;99.10;;;;;;5107503;28;20044;-70
2022/07/06 10:41:55;;;;;;;5.88;0.85;;;21.70;99.20;;;;;;5105823;28;20051;-70
2022/07/06 10:44:27;;;;;;;2.85;0.57;;;21.00;98.50;;;;;;5096842;28;20040;-68
2022/07/06 10:46:56;;;;;;;4.07;0.60;;;20.20;98.60;;;;;;5088524;28;20036;-70
2022/07/06 10:49:24;;;;;;;3.17;0.73;;;21.30;98.90;;;;;;5071916;28;20417;-70
2022/07/06 10:51:50;;;;;;;2.67;0.50;;;21.40;98.30;;;;;;5088547;28;20032;-70
2022/07/06 10:54:18;;;;;;;4.88;0.73;;;20.40;98.20;;;;;;5089543;28;20478;-70
2022/07/06 10:56:46;;;;;;;2.33;0.50;;;20.90;98.10;;;;;;5100777;28;20040;-69
2022/07/06 10:59:17;;;;;;;4.28;1.25;;;21.00;98.00;;;;;;5088540;28;20076;-70
2022/07/06 11:02:14;;;;;;;4.80;0.73;;;20.90;98.30;;;;;;5089163;28;20063;-70
2022/07/06 11:04:43;;;;;;;4.30;0.70;;;20.40;97.40;;;;;;5090334;28;20087;-70
2022/07/06 11:07:17;;;;;;;2.92;0.60;;;20.80;98.20;;;;;;5089235;28;20036;-71
2022/07/06 11:09:57;;;;;;;1.73;0.50;;;21.20;97.90;;;;;;5071679;28;20071;-70
2022/07/06 11:12:23;;;;;;;2.25;0.47;;;22.10;98.50;;;;;;5072338;28;20040;-71
2022/07/06 11:14:51;;;;;;;3.78;0.73;;;21.80;98.20;;;;;;5088966;28;20085;-70
2022/07/06 11:17:17;;;;;;;3.35;0.52;;;20.80;97.80;;;;;;5090821;28;20032;-71
2022/07/06 11:19:56;;;;;;;3.03;0.75;;;20.20;98.30;;;;;;5088776;28;20071;-71
2022/07/06 11:22:24;;;;;;;3.90;0.50;;;20.10;98.50;;;;;;5088403;28;20043;-71
2022/07/06 11:24:51;;;;;;;0.98;0.55;;;20.20;99.00;;;;;;5090875;28;20111;-71
2022/07/06 11:27:17;;;;;;;4.57;0.70;;;21.80;98.90;;;;;;5089209;28;20051;-72
2022/07/06 11:29:44;;;;;;;4.95;0.50;;;20.40;98.60;;;;;;5089146;28;20040;-71
2022/07/06 11:32:11;;;;;;;2.00;0.60;;;20.30;98.20;;;;;;5101152;28;20493;-70
2022/07/06 11:34:40;;;;;;;5.80;0.90;;;20.90;98.80;;;;;;5105126;28;20166;-70
2022/07/06 11:37:08;;;;;;;0.77;0.40;;;20.60;98.70;;;;;;5089599;28;20063;-71
2022/07/06 11:39:42;;;;;;;7.00;1.27;;;20.70;98.60;;;;;;5100127;28;20025;-71
2022/07/06 11:42:09;;;;;;;0.95;0.57;;;20.80;98.20;;;;;;5093906;28;20040;-71
2022/07/06 11:44:35;;;;;;;3.15;0.60;;;20.80;98.00;;;;;;5098353;28;20067;-71
2022/07/06 11:47:03;;;;;;;5.13;0.50;;;21.30;98.30;;;;;;5095617;28;20047;-70
2022/07/06 11:49:30;;;;;;;2.47;1.20;;;21.70;98.40;;;;;;5094273;28;20466;-71
2022/07/06 11:51:56;;;;;;;0.98;0.45;;;20.70;97.50;;;;;;5093727;28;20044;-69
2022/07/06 11:54:24;;;;;;;2.97;0.50;;;21.20;98.10;;;;;;5098980;28;20032;-71
2022/07/06 11:57:00;;;;;;;2.40;1.20;;;21.50;98.00;;;;;;5104296;28;20065;-70
2022/07/06 11:59:27;;;;;;;2.72;0.60;;;;;;;;;;5092577;28;20395;-70
2022/07/06 12:02:00;;;;;;;1.80;0.73;;;;;;;;;;5110194;28;20039;-71
2022/07/06 12:04:27;;;;;;;2.33;0.60;;;;;;;;;;5107162;28;20040;-70
2022/07/06 12:06:53;;;;;;;2.38;0.70;;;;;;;;;;5092492;28;20149;-70
2022/07/06 12:09:20;;;;;;;1.10;0.60;;;;;;;;;;5086119;28;20038;-70
2022/07/06 12:11:47;;;;;;;4.28;0.85;;;;;;;;;;5107965;28;20082;-70
2022/07/06 12:14:20;;;;;;;2.03;0.70;;;21.80;99.90;;;;;;5105301;28;20036;-70
2022/07/06 12:16:48;;;;;;;0.77;0.40;;;21.70;99.90;;;;;;5093429;28;20040;-71
2022/07/06 12:19:14;;;;;;;3.67;0.68;;;21.80;99.90;;;;;;5098528;22;20045;-70
2022/07/06 12:21:50;;;;;;;2.88;0.65;;;21.70;99.90;;;;;;5049846;28;20451;-71
2022/07/06 12:24:20;;;;;;;2.45;0.68;;;22.20;99.90;;;;;;5048873;28;20033;-71
2022/07/06 12:26:46;;;;;;;1.05;0.65;;;22.10;99.90;;;;;;5048622;28;20037;-71
2022/07/06 12:29:13;;;;;;;4.18;0.60;;;22.00;99.90;;;;;;5025603;28;20419;-71
2022/07/06 12:32:14;;;;;;;3.92;0.73;;;22.00;99.90;;;;;;5039873;28;20030;-71
2022/07/06 12:34:39;;;;;;;9.57;0.70;;;21.40;99.90;;;;;;5037008;28;20530;-71
2022/07/06 12:37:07;;;;;;;5.60;0.77;;;21.80;99.90;;;;;;5022984;28;20122;-71
2022/07/06 12:39:45;;;;;;;4.63;0.85;;;21.90;99.90;;;;;;5023689;28;20037;-71
2022/07/06 12:42:13;;;;;;;1.85;0.65;;;21.50;99.90;;;;;;5034148;28;20108;-71
2022/07/06 12:44:52;;;;;;;2.00;0.50;;;21.50;99.90;;;;;;5039681;28;20041;-71
2022/07/06 12:47:21;;;;;;;2.55;0.70;;;21.30;99.90;;;;;;5036926;28;20134;-71
2022/07/06 12:49:46;;;;;;;3.25;0.70;;;21.50;99.90;;;;;;5038472;28;20298;-71
2022/07/06 12:52:13;;;;;;;1.33;0.68;;;;;;;;;;5038255;28;20040;-73
2022/07/06 12:54:47;;;;;;;2.38;0.57;;;;;;;;;;5043806;28;20052;-71
2022/07/06 12:57:17;;;;;;;2.45;0.70;;;20.50;99.90;;;;;;5036864;28;20522;-71